Time;durP1;ratioP1;P1;durP2;ratioP2;P2;SDS_P1;SDS_P2;PMS_P1;PMS_P2;Temp;Humidity;BMP_temperature;BMP_pressure;BME280_temperature;BME280_humidity;BME280_pressure;Samples;Min_cycle;Max_cycle;Signal;HPM_P1;HPM_P2
2022/03/21 00:01:24;;;;;;;6.25;2.20;;;;;;;4.95;52.02;101659.97;6176893;23;20025;-79
2022/03/21 00:03:50;;;;;;;6.72;3.10;;;;;;;4.76;51.94;101633.31;6128042;23;20068;-80
2022/03/21 00:06:16;;;;;;;8.27;2.85;;;;;;;4.89;52.54;101659.69;6153802;23;20017;-81
2022/03/21 00:08:44;;;;;;;9.82;2.65;;;;;;;4.74;52.65;101634.09;6127097;23;20092;-80
2022/03/21 00:11:11;;;;;;;11.75;3.17;;;;;;;4.76;52.10;101645.34;6151846;23;20165;-81
2022/03/21 00:13:38;;;;;;;6.93;2.88;;;;;;;4.79;53.01;101661.84;6154022;23;20021;-80
2022/03/21 00:16:05;;;;;;;8.95;2.67;;;;;;;4.67;52.87;101649.28;6127715;23;20470;-81
2022/03/21 00:18:31;;;;;;;7.28;2.53;;;;;;;4.68;52.75;101642.44;6177212;23;20041;-81
2022/03/21 00:20:57;;;;;;;7.00;2.38;;;;;;;4.70;53.12;101640.81;6152084;23;20469;-80
2022/03/21 00:23:25;;;;;;;8.05;3.30;;;;;;;4.75;53.13;101652.19;6153865;23;20427;-80
2022/03/21 00:25:51;;;;;;;7.70;2.80;;;;;;;4.73;52.87;101652.94;6177205;23;20021;-81
2022/03/21 00:28:18;;;;;;;8.85;2.60;;;;;;;4.71;53.49;101660.63;6127567;23;20025;-80
2022/03/21 00:30:44;;;;;;;9.35;2.83;;;;;;;4.70;53.19;101652.81;6177141;23;20017;-80
2022/03/21 00:33:12;;;;;;;9.77;2.78;;;;;;;4.46;52.58;101613.09;6153274;23;20021;-82
2022/03/21 00:35:38;;;;;;;8.13;2.90;;;;;;;4.67;53.23;101646.69;6152364;23;20463;-81
2022/03/21 00:38:05;;;;;;;9.43;2.67;;;;;;;4.63;53.00;101647.41;6176595;23;20121;-80
2022/03/21 00:40:33;;;;;;;11.73;2.75;;;;;;;4.36;53.34;101600.59;6154966;23;20032;-79
2022/03/21 00:42:59;;;;;;;9.43;2.85;;;;;;;4.32;53.57;101609.00;6156532;23;20039;-80
2022/03/21 00:45:26;;;;;;;7.85;2.70;;;;;;;4.25;53.26;101597.53;6181501;23;20079;-80
2022/03/21 00:47:54;;;;;;;7.10;3.08;;;;;;;4.26;53.41;101598.44;6155917;23;20379;-80
2022/03/21 00:50:24;;;;;;;7.00;2.75;;;;;;;4.36;53.72;101613.50;6181990;23;20017;-80
2022/03/21 00:52:52;;;;;;;7.80;3.35;;;;;;;4.37;53.93;101625.56;6156338;23;20363;-81
2022/03/21 00:55:21;;;;;;;10.18;3.15;;;;;;;4.45;53.62;101639.69;6182771;23;20071;-80
2022/03/21 00:57:48;;;;;;;9.90;3.67;;;;;;;4.36;53.88;101626.38;6156023;23;20543;-82
2022/03/21 01:00:15;;;;;;;13.18;3.30;;;;;;;4.43;54.03;101645.56;6156587;23;20482;-80
2022/03/21 01:02:41;;;;;;;8.70;2.97;;;;;;;4.43;53.98;101643.00;6157343;23;20036;-80
2022/03/21 01:05:09;;;;;;;10.40;3.65;;;;;;;4.26;53.72;101612.19;6157122;23;20559;-80
2022/03/21 01:07:36;;;;;;;8.23;2.72;;;;;;;4.37;54.49;101634.19;6156736;23;20067;-80
2022/03/21 01:10:05;;;;;;;8.32;2.85;;;;;;;4.39;53.69;101636.84;6183694;23;20091;-79
2022/03/21 01:12:31;;;;;;;9.18;2.92;;;;;;;4.07;54.04;101611.34;6184233;23;20104;-78
2022/03/21 01:14:58;;;;;;;9.13;3.15;;;;;;;4.22;54.22;101644.69;6183028;23;20028;-79
2022/03/21 01:17:24;;;;;;;6.90;2.58;;;;;;;4.05;54.25;101619.81;6160481;23;20363;-80
2022/03/21 01:19:50;;;;;;;7.00;2.67;;;;;;;4.11;54.63;101632.97;6195994;23;20017;-80
2022/03/21 01:22:16;;;;;;;6.10;2.63;;;;;;;4.09;54.96;101611.41;6170726;23;20012;-80
2022/03/21 01:24:42;;;;;;;8.63;3.17;;;;;;;4.18;54.26;101640.19;6186370;23;20024;-79
2022/03/21 01:27:08;;;;;;;9.45;2.78;;;;;;;4.12;54.71;101629.59;6183579;23;20029;-79
2022/03/21 01:29:35;;;;;;;9.95;3.60;;;;;;;4.17;54.59;101634.97;6158076;23;20017;-79
2022/03/21 01:32:01;;;;;;;8.05;2.88;;;;;;;3.96;54.42;101606.50;6160681;23;20048;-78
2022/03/21 01:34:27;;;;;;;10.50;3.13;;;;;;;3.89;54.91;101595.91;6197901;23;20065;-79
2022/03/21 01:36:54;;;;;;;10.40;2.65;;;;;;;3.93;54.94;101609.81;6176969;23;20115;-81
2022/03/21 01:39:20;;;;;;;10.57;2.92;;;;;;;4.06;54.68;101635.34;6203082;23;20415;-80
2022/03/21 01:41:46;;;;;;;6.78;2.70;;;;;;;4.04;54.85;101620.63;6187516;23;20077;-82
2022/03/21 01:44:14;;;;;;;8.30;2.83;;;;;;;4.12;55.10;101633.88;6178348;23;20040;-78
2022/03/21 01:46:41;;;;;;;10.70;3.05;;;;;;;4.07;55.09;101633.66;6154157;23;20028;-80
2022/03/21 01:49:08;;;;;;;7.68;3.00;;;;;;;4.22;55.25;101590.56;6153801;23;20040;-79
2022/03/21 01:51:39;;;;;;;10.27;3.63;;;;;;;4.15;55.08;101585.94;6176350;23;20021;-79
2022/03/21 01:56:51;;;;;;;9.60;3.08;;;;;;;3.99;55.38;101568.88;6151209;23;20022;-80
2022/03/21 01:59:19;;;;;;;6.50;3.25;;;;;;;4.07;55.42;101580.41;6153154;23;20021;-80
2022/03/21 02:01:46;;;;;;;10.52;2.90;;;;;;;4.02;55.04;101591.34;6152320;23;20017;-80
2022/03/21 02:04:12;;;;;;;12.82;3.00;;;;;;;3.87;55.37;101582.06;6181779;23;20053;-80
2022/03/21 02:06:41;;;;;;;6.45;2.30;;;;;;;3.77;55.67;101569.56;6159628;23;20447;-81
2022/03/21 02:09:07;;;;;;;10.15;3.25;;;;;;;3.94;56.09;101614.16;6156142;23;20040;-80
2022/03/21 02:11:34;;;;;;;9.00;3.38;;;;;;;3.94;56.34;101605.53;6177301;23;20025;-80
2022/03/21 02:14:02;;;;;;;11.20;3.20;;;;;;;3.90;55.88;101596.78;6151458;23;20025;-83
2022/03/21 02:16:30;;;;;;;9.65;2.58;;;;;;;3.92;55.71;101601.19;6150806;23;20017;-79
2022/03/21 02:19:00;;;;;;;10.93;2.97;;;;;;;3.70;55.76;101559.78;6151608;23;20359;-80
2022/03/21 02:21:37;;;;;;;8.45;3.05;;;;;;;3.94;56.22;101597.81;6160056;23;20052;-81
2022/03/21 02:24:09;;;;;;;10.23;2.75;;;;;;;3.95;56.12;101589.28;6157022;23;20017;-80
2022/03/21 02:26:36;;;;;;;8.20;2.90;;;;;;;3.88;56.24;101583.81;6129421;23;20013;-78
2022/03/21 02:29:03;;;;;;;7.10;2.85;;;;;;;3.90;56.15;101589.94;6104716;23;20025;-80
2022/03/21 02:31:34;;;;;;;9.48;3.10;;;;;;;3.82;56.45;101590.38;6177433;23;20359;-80
2022/03/21 02:34:01;;;;;;;6.18;2.38;;;;;;;3.82;56.41;101591.28;6158098;23;20032;-80
2022/03/21 02:36:28;;;;;;;9.52;2.58;;;;;;;3.73;56.31;101585.69;6159944;23;20013;-80
2022/03/21 02:38:56;;;;;;;9.38;3.00;;;;;;;3.39;56.42;101530.88;6179645;23;20108;-79
2022/03/21 02:41:22;;;;;;;6.53;2.97;;;;;;;3.50;56.44;101557.16;6178543;23;20367;-80
2022/03/21 02:43:51;;;;;;;8.65;2.55;;;;;;;3.73;56.36;101596.88;6177799;23;20328;-78
2022/03/21 02:46:17;;;;;;;10.73;2.80;;;;;;;3.54;56.52;101571.94;6153992;23;20040;-79
2022/03/21 02:48:46;;;;;;;9.63;2.88;;;;;;;3.52;56.62;101570.09;6179334;23;20088;-78
2022/03/21 02:51:12;;;;;;;7.25;2.60;;;;;;;3.71;57.14;101592.44;6156742;23;20021;-79
2022/03/21 02:53:40;;;;;;;9.18;2.50;;;;;;;3.65;56.78;101594.72;6154858;23;20698;-79
2022/03/21 02:56:07;;;;;;;5.68;2.30;;;;;;;3.59;56.66;101588.50;6156175;23;20634;-78
2022/03/21 02:58:33;;;;;;;8.00;2.38;;;;;;;3.70;57.11;101607.03;6153263;23;20044;-79
2022/03/21 03:01:10;;;;;;;9.45;3.08;;;;;;;3.46;56.73;101560.38;6152399;23;20064;-78
2022/03/21 03:03:36;;;;;;;6.05;2.30;;;;;;;3.52;57.10;101576.13;6158755;23;20028;-79
2022/03/21 03:06:02;;;;;;;9.57;3.90;;;;;;;3.67;57.49;101596.59;6157305;23;20099;-79
2022/03/21 03:08:29;;;;;;;6.63;2.72;;;;;;;3.65;57.57;101603.34;6150787;23;20108;-78
2022/03/21 03:10:56;;;;;;;10.00;2.88;;;;;;;3.59;57.17;101597.88;6150626;23;20454;-81
2022/03/21 03:13:22;;;;;;;8.50;2.35;;;;;;;3.59;57.24;101601.38;6175465;23;20460;-80
2022/03/21 03:15:50;;;;;;;11.48;3.17;;;;;;;3.61;57.29;101610.06;6150671;23;20116;-81
2022/03/21 03:18:16;;;;;;;9.13;2.92;;;;;;;3.64;57.61;101600.72;6152698;23;20458;-80
2022/03/21 03:20:50;;;;;;;9.43;2.63;;;;;;;3.65;57.67;101605.03;6128849;23;20028;-79
2022/03/21 03:23:21;;;;;;;7.78;2.65;;;;;;;3.50;57.48;101577.75;6155392;23;20021;-79
2022/03/21 03:25:58;;;;;;;8.55;2.75;;;;;;;3.47;57.68;101577.59;6202689;23;20025;-78
2022/03/21 03:28:25;;;;;;;10.60;2.50;;;;;;;3.27;57.41;101538.91;6181695;23;20008;-79
2022/03/21 03:30:52;;;;;;;9.20;2.45;;;;;;;3.52;57.36;101580.41;6182552;23;20024;-78
2022/03/21 03:33:20;;;;;;;11.35;2.80;;;;;;;3.49;57.81;101578.53;6129943;23;20025;-80
2022/03/21 03:35:46;;;;;;;8.82;2.50;;;;;;;3.53;57.89;101577.88;6152373;23;20117;-81
2022/03/21 03:38:12;;;;;;;6.05;2.70;;;;;;;3.42;57.72;101553.34;6152451;23;20023;-78
2022/03/21 03:40:39;;;;;;;10.10;2.60;;;;;;;3.57;57.66;101584.97;6152952;23;20021;-80
2022/03/21 03:43:05;;;;;;;8.90;2.83;;;;;;;3.34;58.00;101523.75;6155930;23;20104;-82
2022/03/21 03:45:31;;;;;;;10.00;3.03;;;;;;;3.40;57.62;101535.22;6181640;23;20049;-79
2022/03/21 03:47:57;;;;;;;7.97;2.65;;;;;;;3.48;58.28;101543.31;6183377;23;20021;-80
2022/03/21 03:50:23;;;;;;;8.45;3.10;;;;;;;3.48;57.75;101543.31;6185881;23;20144;-77
2022/03/21 03:52:49;;;;;;;9.60;2.83;;;;;;;3.66;57.79;101566.50;6161798;23;20016;-80
2022/03/21 03:55:19;;;;;;;10.23;2.90;;;;;;;3.71;57.75;101572.75;6171089;23;20017;-80
2022/03/21 03:57:55;;;;;;;9.43;2.80;;;;;;;3.66;57.65;101563.03;6166071;23;20073;-79
2022/03/21 04:00:22;;;;;;;5.97;2.90;;;;;;;3.70;58.10;101544.34;6157473;23;20280;-81
2022/03/21 04:05:32;;;;;;;8.73;2.90;;;;;;;4.05;57.71;101578.59;6179884;23;20109;-83
2022/03/21 04:07:58;;;;;;;7.38;2.78;;;;;;;4.11;57.91;101562.53;6183180;23;20016;-82
2022/03/21 04:10:25;;;;;;;10.93;3.08;;;;;;;4.22;57.44;101577.66;6156156;23;20021;-82
2022/03/21 04:12:51;;;;;;;7.88;2.47;;;;;;;3.63;57.43;101441.91;6181638;23;20075;-82
2022/03/21 04:15:18;;;;;;;10.73;3.10;;;;;;;4.05;57.84;101514.19;6166388;23;20017;-81
2022/03/21 04:17:45;;;;;;;6.90;2.70;;;;;;;4.10;57.28;101486.91;6205201;23;20016;-81
2022/03/21 04:20:15;;;;;;;9.25;3.08;;;;;;;4.14;57.13;101495.69;6144339;23;20021;-84
2022/03/21 04:22:41;;;;;;;8.07;3.25;;;;;;;3.88;56.45;101428.41;6155964;23;20018;-84
2022/03/21 04:25:11;;;;;;;6.05;2.78;;;;;;;4.47;56.75;101508.28;6180434;23;20489;-82
2022/03/21 04:27:38;;;;;;;10.60;2.90;;;;;;;5.08;56.55;101579.66;6154981;23;20342;-82
2022/03/21 04:30:05;;;;;;;10.13;2.92;;;;;;;5.02;56.12;101534.66;6155295;23;20021;-82
2022/03/21 04:32:31;;;;;;;11.13;3.30;;;;;;;4.55;56.05;101438.97;6181350;23;20013;-82
2022/03/21 04:34:57;;;;;;;9.32;2.85;;;;;;;5.56;55.73;101579.03;6131316;23;20335;-82
2022/03/21 04:37:23;;;;;;;9.27;3.72;;;;;;;5.86;55.44;101547.47;6185176;23;20020;-81
2022/03/21 04:39:49;;;;;;;7.55;2.83;;;;;;;6.12;54.35;101518.28;6185857;23;20020;-81
2022/03/21 04:42:16;;;;;;;8.23;2.85;;;;;;;6.75;53.76;101566.22;6153602;23;20466;-81
2022/03/21 04:44:44;;;;;;;8.38;2.67;;;;;;;6.98;53.37;101550.59;6153260;23;20021;-82
2022/03/21 04:47:10;;;;;;;8.77;2.92;;;;;;;7.38;52.91;101559.72;6154138;23;20027;-83
2022/03/21 04:49:37;;;;;;;7.03;2.53;;;;;;;7.47;52.37;101549.63;6154385;23;20044;-81
2022/03/21 04:52:03;;;;;;;8.43;2.75;;;;;;;7.82;51.86;101567.09;6152519;23;20021;-81
2022/03/21 04:54:29;;;;;;;7.82;2.72;;;;;;;7.94;51.54;101525.13;6126818;23;20045;-80
2022/03/21 04:56:56;;;;;;;5.70;2.38;;;;;;;9.03;51.17;101545.44;6176781;23;20021;-81
2022/03/21 04:59:22;;;;;;;9.60;3.00;;;;;;;10.64;49.39;101519.44;6152901;23;20120;-79
2022/03/21 05:01:48;;;;;;;9.20;2.92;;;;;;;11.94;47.46;101488.38;6151856;23;20475;-79
2022/03/21 05:04:15;;;;;;;6.15;2.80;;;;;;;13.74;45.28;101526.63;6152833;23;20485;-80
2022/03/21 05:06:41;;;;;;;8.20;3.20;;;;;;;14.90;42.36;101545.34;6177363;23;20032;-82
2022/03/21 05:09:08;;;;;;;7.75;2.92;;;;;;;15.46;40.67;101485.88;6152903;23;20013;-84
2022/03/21 05:11:34;;;;;;;6.53;3.20;;;;;;;16.65;38.49;101534.41;6153892;23;20156;-80
2022/03/21 05:14:02;;;;;;;7.07;3.65;;;;;;;17.21;37.26;101530.50;6154710;23;20029;-82
2022/03/21 05:16:28;;;;;;;7.55;3.35;;;;;;;17.98;35.58;101542.00;6156003;23;20021;-81
2022/03/21 05:18:54;;;;;;;6.28;3.38;;;;;;;18.60;34.33;101521.00;6155031;23;20017;-82
2022/03/21 05:21:20;;;;;;;8.43;3.30;;;;;;;19.40;33.00;101541.69;6104287;23;20010;-81
2022/03/21 05:32:00;;;;;;;7.95;3.50;;;;;;;22.69;27.83;101507.97;6153983;23;20340;-83
2022/03/21 05:37:10;;;;;;;7.45;3.55;;;;;;;23.59;25.96;101530.59;6153738;23;20017;-82
2022/03/21 05:40:31;;;;;;;9.27;3.97;;;;;;;23.44;25.82;101508.13;6151959;23;20096;-80
2022/03/21 05:42:25;;;;;;;11.43;3.85;;;;;;;23.89;25.48;101549.88;6151171;23;20366;-81
2022/03/21 05:44:52;;;;;;;8.32;3.67;;;;;;;24.89;24.55;101540.75;6156751;23;20017;-82
2022/03/21 05:47:18;;;;;;;7.30;3.30;;;;;;;25.78;23.62;101536.03;6179403;23;20325;-81
2022/03/21 05:49:44;;;;;;;9.05;3.92;;;;;;;26.76;22.11;101518.97;6128068;23;20077;-81
2022/03/21 05:52:11;;;;;;;8.80;3.55;;;;;;;27.44;21.21;101503.09;6127619;23;20071;-82
2022/03/21 05:54:37;;;;;;;8.15;4.10;;;;;;;27.93;20.46;101523.66;6154520;23;20017;-80
2022/03/21 05:57:04;;;;;;;11.02;4.22;;;;;;;27.95;20.21;101514.59;6151866;23;20094;-79
2022/03/21 06:02:16;;;;;;;9.77;4.30;;;;;;;29.30;19.42;101511.34;6152410;23;20112;-81
2022/03/21 06:04:42;;;;;;;6.18;3.55;;;;;;;29.28;18.38;101548.09;6153940;23;20068;-82
2022/03/21 06:07:11;;;;;;;8.80;5.18;;;;;;;29.24;18.19;101507.25;6154939;23;20021;-82
2022/03/21 06:09:37;;;;;;;8.95;4.10;;;;;;;30.03;18.28;101542.63;6162296;23;20017;-82
2022/03/21 06:12:06;;;;;;;8.23;3.63;;;;;;;30.66;17.50;101477.75;6171924;23;20308;-82
2022/03/21 06:14:34;;;;;;;7.75;3.78;;;;;;;31.23;16.68;101467.59;6153970;23;20022;-82
2022/03/21 06:17:00;;;;;;;7.95;4.05;;;;;;;32.55;16.67;101558.63;6176503;23;20018;-84
2022/03/21 06:19:26;;;;;;;7.22;3.75;;;;;;;32.83;15.69;101464.06;6176783;23;20013;-82
2022/03/21 06:21:52;;;;;;;13.88;4.43;;;;;;;33.35;14.78;101516.59;6151957;23;20017;-84
2022/03/21 06:24:18;;;;;;;8.63;4.38;;;;;;;33.60;15.34;101530.00;6151796;23;20340;-84
2022/03/21 06:26:45;;;;;;;8.48;4.22;;;;;;;33.41;14.63;101468.59;6178782;23;20017;-83
2022/03/21 06:29:14;;;;;;;9.20;4.45;;;;;;;34.05;14.84;101500.28;6103119;23;20164;-86
2022/03/21 06:31:40;;;;;;;7.60;4.47;;;;;;;33.80;13.89;101499.56;6152278;23;20100;-82
2022/03/21 06:34:06;;;;;;;7.90;4.35;;;;;;;33.86;14.04;101479.34;6152610;23;20045;-82
2022/03/21 06:36:32;;;;;;;7.70;4.50;;;;;;;34.04;13.86;101473.44;6177835;23;20339;-81
2022/03/21 06:38:58;;;;;;;8.75;4.00;;;;;;;34.23;13.84;101519.53;6152866;23;20410;-82
2022/03/21 06:41:24;;;;;;;8.63;4.35;;;;;;;34.37;13.66;101522.91;6175595;23;20092;-84
2022/03/21 06:43:50;;;;;;;36.17;5.65;;;;;;;34.59;13.32;101486.00;6152047;23;20063;-83
2022/03/21 06:46:16;;;;;;;8.02;4.25;;;;;;;35.36;13.41;101516.38;6151408;23;20017;-83
2022/03/21 06:48:42;;;;;;;9.40;4.60;;;;;;;35.24;13.07;101488.56;6176252;23;20021;-83
2022/03/21 06:51:08;;;;;;;8.05;4.68;;;;;;;35.69;12.91;101519.84;6127126;23;20028;-82
2022/03/21 06:53:34;;;;;;;11.05;4.53;;;;;;;35.59;12.84;101482.75;6176405;23;20021;-83
2022/03/21 06:56:00;;;;;;;9.55;4.47;;;;;;;36.14;12.18;101516.69;6151081;23;20025;-78
2022/03/21 06:58:26;;;;;;;10.73;4.63;;;;;;;36.47;12.09;101503.75;6153536;23;20548;-80
2022/03/21 07:00:52;;;;;;;10.30;4.50;;;;;;;36.88;11.68;101509.00;6158956;23;20017;-81
2022/03/21 07:03:19;;;;;;;11.07;4.03;;;;;;;36.90;12.15;101507.00;6156806;23;20033;-84
2022/03/21 07:05:45;;;;;;;11.32;4.78;;;;;;;37.39;11.83;101514.19;6179410;23;20017;-83
2022/03/21 07:08:13;;;;;;;10.35;4.68;;;;;;;37.94;11.39;101513.38;6152863;23;20076;-81
2022/03/21 07:10:40;;;;;;;9.68;4.95;;;;;;;37.86;11.58;101453.50;6154321;23;20017;-81
2022/03/21 07:13:07;;;;;;;8.70;4.93;;;;;;;37.43;10.89;101499.31;6170972;23;20013;-81
2022/03/21 07:15:34;;;;;;;8.00;4.40;;;;;;;37.71;11.54;101490.34;6198940;23;20056;-81
2022/03/21 07:18:00;;;;;;;9.20;4.63;;;;;;;38.75;10.75;101489.00;6109075;23;20040;-81
2022/03/21 07:20:27;;;;;;;11.25;4.53;;;;;;;39.35;10.64;101500.13;6182278;23;20080;-83
2022/03/21 07:22:54;;;;;;;10.75;4.68;;;;;;;39.27;10.28;101439.16;6115529;23;20040;-79
2022/03/21 07:25:20;;;;;;;9.20;5.10;;;;;;;39.25;10.30;101452.06;6163037;23;20075;-79
2022/03/21 07:27:48;;;;;;;9.40;4.40;;;;;;;39.66;10.47;101475.03;6163074;23;20036;-82
2022/03/21 07:30:14;;;;;;;13.02;5.22;;;;;;;39.52;10.18;101503.75;6129712;23;20017;-81
2022/03/21 07:32:42;;;;;;;9.18;4.95;;;;;;;39.69;10.22;101486.47;6177516;23;20040;-83
2022/03/21 07:35:09;;;;;;;11.50;4.97;;;;;;;39.73;9.60;101460.59;6155296;23;20028;-85
2022/03/21 07:37:49;;;;;;;11.80;4.65;;;;;;;39.60;10.27;101458.38;6109826;23;20026;-83
2022/03/21 07:40:16;;;;;;;11.45;4.38;;;;;;;39.22;9.70;101421.63;6088549;23;20013;-84
2022/03/21 07:42:45;;;;;;;8.88;4.63;;;;;;;39.34;9.76;101400.44;6158740;23;20021;-82
2022/03/21 07:47:58;;;;;;;10.80;5.13;;;;;;;40.20;9.67;101486.44;6153811;23;20112;-85
2022/03/21 07:50:26;;;;;;;9.73;5.10;;;;;;;39.58;9.75;101456.81;6155510;23;20087;-84
2022/03/21 07:52:53;;;;;;;10.02;4.50;;;;;;;39.85;9.74;101474.78;6154309;23;20029;-83
2022/03/21 07:55:20;;;;;;;11.07;4.82;;;;;;;39.83;9.59;101449.59;6177152;23;20096;-86
2022/03/21 07:57:47;;;;;;;13.05;7.38;;;;;;;39.90;9.70;101419.81;6177604;23;20021;-85
2022/03/21 08:00:14;;;;;;;12.57;4.93;;;;;;;40.81;9.50;101469.72;6168028;23;20474;-85
2022/03/21 08:02:45;;;;;;;12.15;4.65;;;;;;;41.29;9.44;101441.63;6171258;23;20061;-83
2022/03/21 08:05:13;;;;;;;9.52;4.88;;;;;;;41.17;8.85;101457.56;6157417;23;20024;-85
2022/03/21 08:07:41;;;;;;;10.63;4.78;;;;;;;41.48;9.41;101480.44;6129447;23;20017;-83
2022/03/21 08:10:07;;;;;;;12.32;5.28;;;;;;;41.61;9.17;101458.88;6153252;23;20316;-83
2022/03/21 08:12:34;;;;;;;11.45;4.28;;;;;;;41.74;8.99;101420.06;6155261;23;20470;-83
2022/03/21 08:15:00;;;;;;;10.50;5.05;;;;;;;42.53;8.72;101457.22;6154923;23;20024;-84
2022/03/21 08:17:26;;;;;;;10.23;4.55;;;;;;;42.72;8.54;101408.47;6129433;23;20017;-84
2022/03/21 08:20:06;;;;;;;;;;;;;;;;;;;;;
2022/03/21 08:22:43;;;;;;;12.88;5.40;;;;;;;43.75;8.62;101460.59;6155117;23;20104;-86
2022/03/21 08:25:41;;;;;;;10.65;5.90;;;;;;;44.19;8.09;101471.59;6155161;23;20048;-87
2022/03/21 08:28:14;;;;;;;11.55;5.30;;;;;;;43.65;7.87;101358.69;6154597;23;20555;-83
2022/03/21 08:30:41;;;;;;;15.32;5.47;;;;;;;44.64;7.82;101479.56;6179362;23;20375;-83
2022/03/21 08:33:13;;;;;;;14.70;5.10;;;;;;;44.35;7.89;101391.78;6158572;23;20458;-85
2022/03/21 08:35:40;;;;;;;9.82;4.55;;;;;;;44.54;7.87;101397.63;6159638;23;20024;-84
2022/03/21 08:38:08;;;;;;;13.10;5.18;;;;;;;44.55;7.68;101396.56;6106947;23;20024;-84
2022/03/21 08:40:37;;;;;;;11.35;5.10;;;;;;;44.60;7.78;101410.53;6154278;23;20121;-85
2022/03/21 08:43:08;;;;;;;14.15;4.68;;;;;;;44.18;7.37;101432.34;6153272;23;20017;-82
2022/03/21 08:45:35;;;;;;;10.95;4.93;;;;;;;44.31;7.50;101420.63;6127808;23;20064;-83
2022/03/21 08:48:05;;;;;;;10.93;4.78;;;;;;;44.21;7.37;101332.44;6129252;23;20355;-82
2022/03/21 08:50:34;;;;;;;9.40;4.00;;;;;;;44.50;7.35;101440.22;6153411;23;20021;-86
2022/03/21 08:53:03;;;;;;;12.93;4.68;;;;;;;44.05;7.26;101397.44;6178869;23;20030;-85
2022/03/21 08:55:29;;;;;;;11.55;3.75;;;;;;;43.51;7.38;101374.13;6154632;23;20021;-83
2022/03/21 08:58:02;;;;;;;11.27;3.92;;;;;;;43.34;7.43;101464.72;6154791;23;20336;-84
2022/03/21 09:00:28;;;;;;;8.50;4.15;;;;;;;43.47;7.45;101428.44;6157396;23;20017;-83
2022/03/21 09:02:57;;;;;;;9.73;4.10;;;;;;;43.08;7.77;101339.31;6140010;23;20042;-83
2022/03/21 09:05:24;;;;;;;10.88;4.20;;;;;;;43.41;7.56;101333.38;6145851;23;20052;-84
2022/03/21 09:07:50;;;;;;;10.27;4.32;;;;;;;43.59;7.24;101348.50;6169583;23;20022;-85
2022/03/21 09:10:18;;;;;;;7.53;3.80;;;;;;;44.01;7.17;101428.16;6169885;23;20487;-84
2022/03/21 09:12:44;;;;;;;8.63;3.90;;;;;;;43.51;7.40;101425.31;6163044;23;20014;-85
2022/03/21 09:15:12;;;;;;;11.43;4.47;;;;;;;43.24;7.21;101387.53;6157786;23;20063;-85
2022/03/21 09:17:41;;;;;;;13.05;4.05;;;;;;;43.89;7.28;101438.81;6169488;23;20017;-84
2022/03/21 09:20:07;;;;;;;9.07;4.00;;;;;;;44.00;7.30;101421.84;6162423;23;20021;-82
2022/03/21 09:22:34;;;;;;;9.30;4.00;;;;;;;43.69;7.56;101384.66;6157120;23;20022;-87
2022/03/21 09:25:00;;;;;;;8.07;4.18;;;;;;;43.81;7.15;101430.75;6166548;23;20064;-82
2022/03/21 09:27:27;;;;;;;9.65;4.07;;;;;;;43.69;7.57;101425.75;6159630;23;20025;-82
2022/03/21 09:29:54;;;;;;;11.88;4.30;;;;;;;44.04;7.32;101425.06;6155502;23;20076;-81
2022/03/21 09:32:20;;;;;;;10.07;4.20;;;;;;;44.03;7.25;101432.38;6155309;23;20025;-81
2022/03/21 09:34:46;;;;;;;9.63;3.75;;;;;;;43.93;7.25;101418.19;6154166;23;20355;-82
2022/03/21 09:37:12;;;;;;;7.30;4.10;;;;;;;43.26;7.22;101417.44;6154852;23;20100;-82
2022/03/21 09:39:38;;;;;;;9.38;5.00;;;;;;;42.92;7.43;101397.00;6156354;23;20048;-83
2022/03/21 09:42:06;;;;;;;12.05;4.03;;;;;;;43.20;7.46;101408.09;6157245;23;20052;-81
2022/03/21 09:44:32;;;;;;;9.20;4.03;;;;;;;41.89;7.31;101406.47;6160065;23;20443;-80
2022/03/21 09:48:08;;;;;;;8.65;4.00;;;;;;;42.06;7.70;101407.22;6162998;23;20360;-81
2022/03/21 09:49:46;;;;;;;8.25;3.60;;;;;;;42.25;7.82;101400.41;6162994;23;20079;-82
2022/03/21 09:52:13;;;;;;;9.57;3.90;;;;;;;41.57;7.67;101405.69;6174415;23;20036;-80
2022/03/21 09:54:39;;;;;;;8.75;4.30;;;;;;;41.54;8.18;101395.13;6174454;23;20028;-81
2022/03/21 09:57:08;;;;;;;11.07;4.80;;;;;;;41.85;8.04;101421.53;6175912;23;20462;-82
2022/03/21 09:59:34;;;;;;;9.10;3.93;;;;;;;41.46;8.45;101362.38;6174056;23;20021;-82
2022/03/21 10:02:03;;;;;;;12.48;4.13;;;;;;;40.86;7.92;101343.72;6167879;23;20013;-83
2022/03/21 10:04:32;;;;;;;8.85;3.70;;;;;;;41.07;8.04;101310.38;6165352;23;20766;-83
2022/03/21 10:07:00;;;;;;;7.72;3.97;;;;;;;41.78;8.23;101374.97;6187724;23;20017;-82
2022/03/21 10:09:30;;;;;;;9.20;3.55;;;;;;;41.91;7.76;101406.31;6169371;23;20021;-81
2022/03/21 10:11:57;;;;;;;9.30;3.72;;;;;;;40.70;8.15;101350.13;6185313;23;20021;-80
2022/03/21 10:14:35;;;;;;;14.48;4.22;;;;;;;40.37;8.23;101404.66;6155129;23;20091;-78
2022/03/21 10:17:15;;;;;;;8.50;3.63;;;;;;;39.35;8.84;101405.69;6156862;23;20017;-79
2022/03/21 10:19:45;;;;;;;9.55;3.70;;;;;;;39.58;8.70;101408.66;6154245;23;20017;-80
2022/03/21 10:22:23;;;;;;;11.77;4.35;;;;;;;37.60;8.70;101401.81;6157468;23;20455;-81
2022/03/21 10:24:52;;;;;;;9.52;4.07;;;;;;;34.97;9.39;101408.91;6153992;23;20021;-80
2022/03/21 10:27:34;;;;;;;10.50;4.13;;;;;;;31.99;10.49;101413.78;6153681;23;20021;-79
2022/03/21 10:30:07;;;;;;;17.10;4.57;;;;;;;30.21;11.42;101405.53;6152862;23;20028;-80
2022/03/21 10:32:37;;;;;;;10.48;3.70;;;;;;;28.94;12.25;101410.84;6154054;23;20018;-79
2022/03/21 10:35:11;;;;;;;9.27;3.03;;;;;;;27.54;13.32;101407.28;6127601;23;20025;-79
2022/03/21 10:37:47;;;;;;;12.50;4.43;;;;;;;26.82;14.09;101408.34;6153443;23;20024;-81
2022/03/21 10:40:20;;;;;;;8.95;3.15;;;;;;;25.64;14.61;101427.38;6152871;23;20017;-79
2022/03/21 10:42:57;;;;;;;7.47;3.25;;;;;;;24.60;15.32;101418.59;6152631;23;20100;-83
2022/03/21 10:45:44;;;;;;;10.23;3.47;;;;;;;23.54;15.99;101368.75;6153099;23;20359;-79
2022/03/21 10:48:24;;;;;;;10.40;3.55;;;;;;;22.95;16.46;101428.41;6128448;23;20095;-81
2022/03/21 10:50:53;;;;;;;6.28;2.60;;;;;;;22.36;16.96;101420.59;6128562;23;20399;-80
2022/03/21 10:53:23;;;;;;;9.95;3.80;;;;;;;21.88;17.44;101419.47;6150936;23;20014;-79
2022/03/21 10:55:58;;;;;;;6.32;2.53;;;;;;;21.24;17.75;101428.34;6150309;23;20021;-80
2022/03/21 10:58:35;;;;;;;13.70;3.25;;;;;;;20.64;18.47;101427.25;6150892;23;20076;-79
2022/03/21 11:01:29;;;;;;;10.85;2.80;;;;;;;20.10;18.91;101435.56;6151715;23;20473;-82
2022/03/21 11:03:59;;;;;;;8.40;2.88;;;;;;;19.67;19.42;101402.13;6154487;23;20021;-81
2022/03/21 11:06:29;;;;;;;7.43;2.70;;;;;;;19.49;19.92;101442.97;6151647;23;20430;-80
2022/03/21 11:08:57;;;;;;;8.32;2.70;;;;;;;19.07;19.97;101417.41;6175702;23;20036;-79
2022/03/21 11:11:25;;;;;;;12.52;3.03;;;;;;;18.99;20.04;101433.34;6176019;23;20033;-79
2022/03/21 11:13:53;;;;;;;10.68;2.95;;;;;;;18.53;20.38;101416.53;6174783;23;20471;-81
2022/03/21 11:16:21;;;;;;;10.95;3.00;;;;;;;18.26;20.52;101421.34;6151164;23;20053;-79
2022/03/21 11:18:48;;;;;;;8.25;2.55;;;;;;;18.28;21.01;101438.00;6176386;23;20021;-80
2022/03/21 11:21:15;;;;;;;10.05;2.55;;;;;;;18.02;21.01;101412.06;6175979;23;20032;-78
2022/03/21 11:23:41;;;;;;;7.72;2.53;;;;;;;17.46;21.46;101399.56;6152288;23;20017;-81
2022/03/21 11:26:25;;;;;;;7.22;2.22;;;;;;;17.44;21.88;101428.56;6151550;23;20014;-78
2022/03/21 11:29:04;;;;;;;6.53;2.42;;;;;;;17.24;21.94;101425.28;6174744;23;20013;-80
2022/03/21 11:31:36;;;;;;;6.82;2.72;;;;;;;17.11;22.11;101429.78;6153425;23;20014;-79
2022/03/21 11:34:29;;;;;;;5.43;2.53;;;;;;;17.05;22.45;101432.47;6152115;23;20025;-79
2022/03/21 11:36:58;;;;;;;7.82;2.80;;;;;;;16.91;22.33;101419.41;6174931;23;20029;-79
2022/03/21 11:39:26;;;;;;;7.55;2.80;;;;;;;16.77;22.54;101415.19;6150525;23;20071;-80
2022/03/21 11:42:09;;;;;;;6.28;2.60;;;;;;;16.58;22.65;101417.06;6126048;23;20021;-78
2022/03/21 11:44:37;;;;;;;8.23;2.35;;;;;;;16.40;22.91;101403.22;6150842;23;20021;-81
2022/03/21 11:47:28;;;;;;;10.52;4.00;;;;;;;16.58;22.96;101429.38;6152869;23;20486;-83
2022/03/21 11:49:57;;;;;;;9.40;3.50;;;;;;;15.98;23.15;101337.00;6176770;23;20088;-82
2022/03/21 11:52:24;;;;;;;8.05;2.97;;;;;;;16.45;23.52;101439.09;6153627;23;20014;-81
2022/03/21 11:54:50;;;;;;;10.95;2.55;;;;;;;16.24;23.54;101428.72;6151766;23;20048;-79
2022/03/21 11:57:16;;;;;;;13.93;6.72;;;;;;;16.09;23.78;101431.44;6176941;23;20478;-78